TimeCST,TemperatureF,Dew PointF,Humidity,Sea Level PressureIn,VisibilityMPH,Wind Direction,Wind SpeedMPH,Gust SpeedMPH,PrecipitationIn,Events,Conditions,WindDirDegrees,DateUTC
12:52 AM,-2.0,-6.0,83,30.40,10.0,SE,8.1,-,N/A,,Clear,140,2011-12-06 06:52:00
1:52 AM,-0.9,-5.1,83,30.37,10.0,SSE,4.6,-,N/A,,Clear,160,2011-12-06 07:52:00
2:52 AM,-0.0,-4.0,83,30.37,10.0,South,4.6,-,N/A,,Clear,170,2011-12-06 08:52:00
3:52 AM,3.0,-2.0,80,30.32,10.0,South,3.5,-,N/A,,Clear,170,2011-12-06 09:52:00
4:52 AM,-0.0,-5.1,79,30.31,10.0,SE,6.9,-,N/A,,Clear,140,2011-12-06 10:52:00
5:52 AM,-2.0,-6.0,83,30.27,10.0,Calm,Calm,-,N/A,,Clear,0,2011-12-06 11:52:00
6:52 AM,1.0,-4.0,79,30.24,10.0,Variable,3.5,-,N/A,,Clear,0,2011-12-06 12:52:00
7:52 AM,8.1,1.0,73,30.19,10.0,South,9.2,-,N/A,,Clear,190,2011-12-06 13:52:00
8:52 AM,10.0,1.0,67,30.16,10.0,SSW,9.2,-,N/A,,Clear,200,2011-12-06 14:52:00
9:52 AM,12.9,1.9,62,30.12,10.0,SSW,13.8,-,N/A,,Clear,200,2011-12-06 15:52:00
10:52 AM,15.1,3.0,59,30.10,10.0,SSW,9.2,-,N/A,,Clear,200,2011-12-06 16:52:00
11:52 AM,19.0,5.0,54,30.04,10.0,SSW,13.8,-,N/A,,Clear,200,2011-12-06 17:52:00
12:52 PM,21.0,8.1,57,30.01,10.0,SW,11.5,-,N/A,,Overcast,220,2011-12-06 18:52:00
1:52 PM,24.1,10.9,57,29.97,10.0,SSW,10.4,-,N/A,,Overcast,210,2011-12-06 19:52:00
2:52 PM,27.0,14.0,58,29.92,10.0,SSW,12.7,-,N/A,,Clear,210,2011-12-06 20:52:00
3:52 PM,28.0,15.1,58,29.90,10.0,SW,11.5,-,N/A,,Clear,220,2011-12-06 21:52:00
4:52 PM,27.0,16.0,63,29.90,10.0,SW,5.8,-,N/A,,Clear,220,2011-12-06 22:52:00
5:52 PM,25.0,16.0,69,29.92,10.0,WSW,4.6,-,N/A,,Clear,240,2011-12-06 23:52:00
6:52 PM,25.0,17.1,72,29.91,10.0,WSW,4.6,-,N/A,,Clear,250,2011-12-07 00:52:00
7:52 PM,27.0,18.0,69,29.92,10.0,WNW,3.5,-,N/A,,Clear,290,2011-12-07 01:52:00
8:52 PM,27.0,19.0,72,29.93,10.0,WNW,4.6,-,N/A,,Clear,300,2011-12-07 02:52:00
9:52 PM,25.0,19.0,78,29.95,10.0,WNW,6.9,-,N/A,,Clear,290,2011-12-07 03:52:00
10:52 PM,28.9,21.9,75,29.96,10.0,WNW,10.4,-,N/A,,Partly Cloudy,300,2011-12-07 04:52:00
11:52 PM,28.0,21.9,78,29.98,10.0,West,6.9,-,N/A,,Overcast,280,2011-12-07 05:52:00